Time;durP1;ratioP1;P1;durP2;ratioP2;P2;SDS_P1;SDS_P2;PMS_P1;PMS_P2;Temp;Humidity;BMP_temperature;BMP_pressure;BME280_temperature;BME280_humidity;BME280_pressure;Samples;Min_cycle;Max_cycle;Signal;HPM_P1;HPM_P2
2021/03/02 00:02:04;;;;;;;146.40;81.32;;;4.40;94.50;;;;;;5054035;28;20013;-78
2021/03/02 00:04:30;;;;;;;148.00;82.00;;;4.10;94.60;;;;;;5053942;28;20021;-77
2021/03/02 00:06:57;;;;;;;133.20;74.57;;;3.90;95.20;;;;;;5054182;28;20033;-77
2021/03/02 00:09:23;;;;;;;133.30;76.30;;;;;;;;;;5053869;28;20475;-72
2021/03/02 00:11:50;;;;;;;135.77;74.63;;;4.10;94.50;;;;;;5054025;28;20510;-67
2021/03/02 00:14:18;;;;;;;146.60;79.38;;;4.20;94.60;;;;;;5053898;28;20024;-77
2021/03/02 00:16:56;;;;;;;136.15;76.22;;;4.20;94.50;;;;;;5053885;28;20163;-77
2021/03/02 00:19:33;;;;;;;143.43;78.72;;;4.20;94.80;;;;;;5053927;28;20025;-66
2021/03/02 00:22:17;;;;;;;162.80;99.00;;;4.20;94.70;;;;;;5053950;28;20021;-67
2021/03/02 00:24:48;;;;;;;145.18;88.53;;;4.10;95.10;;;;;;5053650;28;20037;-77
2021/03/02 00:27:16;;;;;;;142.68;84.72;;;4.10;95.10;;;;;;5053758;28;20021;-75
2021/03/02 00:29:45;;;;;;;134.30;84.05;;;4.10;95.50;;;;;;5054053;28;20174;-77
2021/03/02 00:32:12;;;;;;;133.98;78.30;;;4.10;95.30;;;;;;5053679;28;20028;-75
2021/03/02 00:34:38;;;;;;;147.07;78.53;;;4.20;95.00;;;;;;5053765;28;20198;-77
2021/03/02 00:37:04;;;;;;;138.93;78.57;;;4.10;95.00;;;;;;5053646;28;20025;-77
2021/03/02 00:39:31;;;;;;;135.07;74.82;;;4.10;94.80;;;;;;5052342;28;20049;-66
2021/03/02 00:41:57;;;;;;;122.93;67.60;;;3.80;95.10;;;;;;5053641;28;20021;-66
2021/03/02 00:44:23;;;;;;;112.10;64.60;;;3.90;94.90;;;;;;5053414;28;20036;-77
2021/03/02 00:46:49;;;;;;;110.32;63.03;;;3.80;94.90;;;;;;5053578;28;20060;-68
2021/03/02 00:49:15;;;;;;;92.68;54.53;;;3.60;95.00;;;;;;5053741;28;20382;-68
2021/03/02 00:51:41;;;;;;;91.97;53.70;;;3.30;95.40;;;;;;5053744;28;20029;-76
2021/03/02 00:54:07;;;;;;;87.45;52.08;;;3.20;95.90;;;;;;5053353;28;20022;-67
2021/03/02 00:56:33;;;;;;;86.47;50.05;;;3.20;96.10;;;;;;5053334;28;20024;-71
2021/03/02 00:58:58;;;;;;;106.03;57.90;;;3.30;96.10;;;;;;5053456;28;20430;-69
2021/03/02 01:01:25;;;;;;;88.80;50.28;;;3.30;96.20;;;;;;5051917;28;20097;-77
2021/03/02 01:03:51;;;;;;;81.03;46.15;;;3.30;96.30;;;;;;5053279;28;20479;-75
2021/03/02 01:06:17;;;;;;;76.97;45.42;;;3.10;96.50;;;;;;5054813;28;20039;-76
2021/03/02 01:08:43;;;;;;;85.28;47.83;;;2.90;96.60;;;;;;5057212;28;20021;-76
2021/03/02 01:11:09;;;;;;;81.63;47.15;;;2.80;96.90;;;;;;5056949;28;20029;-77
2021/03/02 01:13:35;;;;;;;82.95;47.55;;;3.10;96.60;;;;;;5057328;28;20013;-77
2021/03/02 01:16:02;;;;;;;80.63;47.50;;;3.10;96.60;;;;;;5056899;28;20025;-77
2021/03/02 01:18:27;;;;;;;81.93;48.78;;;3.10;96.90;;;;;;5057015;28;20032;-68
2021/03/02 01:20:54;;;;;;;89.72;50.38;;;3.10;96.80;;;;;;5057138;28;20017;-76
2021/03/02 01:23:20;;;;;;;81.00;48.20;;;3.20;96.60;;;;;;5056749;28;20375;-76
2021/03/02 01:25:46;;;;;;;72.60;44.45;;;3.20;96.10;;;;;;5056817;28;20036;-70
2021/03/02 01:28:12;;;;;;;65.95;39.00;;;3.20;96.40;;;;;;5056818;28;20371;-71
2021/03/02 01:30:38;;;;;;;91.20;54.85;;;3.00;96.50;;;;;;5056848;28;20056;-67
2021/03/02 01:33:05;;;;;;;67.85;40.33;;;2.90;96.50;;;;;;5056889;28;20048;-76
2021/03/02 01:35:31;;;;;;;65.30;39.33;;;3.00;96.50;;;;;;5056758;28;20024;-76
2021/03/02 01:37:58;;;;;;;81.53;45.17;;;2.90;96.90;;;;;;5056817;28;20017;-67
2021/03/02 01:40:24;;;;;;;72.10;43.30;;;3.00;96.70;;;;;;5056409;28;20543;-76
2021/03/02 01:42:50;;;;;;;73.63;41.65;;;2.80;97.10;;;;;;5056660;28;20478;-72
2021/03/02 01:45:20;;;;;;;75.68;43.58;;;3.00;96.90;;;;;;5056609;28;20032;-67
2021/03/02 01:47:48;;;;;;;72.35;42.30;;;3.10;96.50;;;;;;5056398;28;20032;-67
2021/03/02 01:50:15;;;;;;;68.60;40.42;;;3.20;96.20;;;;;;5055764;28;20108;-76
2021/03/02 01:52:41;;;;;;;69.40;38.95;;;3.20;96.10;;;;;;5056631;28;20159;-74
2021/03/02 01:55:08;;;;;;;64.82;37.55;;;3.20;96.10;;;;;;5056155;28;20095;-67
2021/03/02 01:57:34;;;;;;;58.85;36.75;;;3.10;96.10;;;;;;5056721;28;20475;-75
2021/03/02 02:00:05;;;;;;;60.03;36.03;;;3.20;96.00;;;;;;5056165;28;20020;-71
2021/03/02 02:02:57;;;;;;;60.67;36.20;;;3.10;96.20;;;;;;5056011;28;20028;-74
2021/03/02 02:05:25;;;;;;;66.80;40.22;;;3.00;96.20;;;;;;5056309;28;20024;-69
2021/03/02 02:08:00;;;;;;;71.25;40.78;;;3.00;96.20;;;;;;5056004;28;20029;-75
2021/03/02 02:10:41;;;;;;;70.05;41.92;;;3.00;96.60;;;;;;5056204;28;20029;-75
2021/03/02 02:13:15;;;;;;;77.80;45.25;;;3.10;96.50;;;;;;5056254;28;20104;-75
2021/03/02 02:15:42;;;;;;;72.13;42.53;;;3.10;96.40;;;;;;5055774;28;20028;-68
2021/03/02 02:18:19;;;;;;;71.85;43.78;;;3.10;96.40;;;;;;5055344;28;20479;-67
2021/03/02 02:21:05;;;;;;;78.95;45.20;;;3.10;96.40;;;;;;5055842;28;20029;-76
2021/03/02 02:24:01;;;;;;;76.78;45.15;;;3.20;96.00;;;;;;5055761;28;20049;-71
2021/03/02 02:26:53;;;;;;;80.20;49.58;;;3.30;96.40;;;;;;5055840;28;20029;-67
2021/03/02 02:29:23;;;;;;;81.40;49.85;;;3.30;96.60;;;;;;5055308;28;20044;-67
2021/03/02 02:31:52;;;;;;;82.25;47.55;;;3.30;96.30;;;;;;5055681;28;20029;-67
2021/03/02 02:34:19;;;;;;;70.05;42.58;;;3.40;96.10;;;;;;5055798;28;20255;-75
2021/03/02 02:36:50;;;;;;;74.57;44.17;;;3.40;95.90;;;;;;5055878;28;20356;-75
2021/03/02 02:39:17;;;;;;;91.15;53.60;;;3.40;95.70;;;;;;5055782;28;20032;-66
2021/03/02 02:41:47;;;;;;;79.78;45.28;;;3.30;95.90;;;;;;5055656;28;20025;-76
2021/03/02 02:44:15;;;;;;;83.20;50.45;;;3.40;95.80;;;;;;5055563;28;20045;-67
2021/03/02 02:46:43;;;;;;;87.53;50.40;;;3.30;95.90;;;;;;5055383;28;20017;-75
2021/03/02 02:49:11;;;;;;;78.72;47.00;;;3.20;96.10;;;;;;5055321;28;20102;-72
2021/03/02 02:51:38;;;;;;;73.85;45.08;;;3.20;96.30;;;;;;5055329;28;20371;-76
2021/03/02 02:54:06;;;;;;;64.47;41.33;;;3.20;96.50;;;;;;5055362;28;20029;-67
2021/03/02 02:56:35;;;;;;;72.53;43.88;;;3.20;96.10;;;;;;5055199;28;20074;-67
2021/03/02 02:59:21;;;;;;;65.40;40.13;;;3.00;96.60;;;;;;5055291;28;20024;-76
2021/03/02 03:02:00;;;;;;;64.57;38.70;;;3.10;96.10;;;;;;5055036;28;20033;-73
2021/03/02 03:05:01;;;;;;;71.25;42.20;;;3.10;96.00;;;;;;5053606;28;20033;-75
2021/03/02 03:07:33;;;;;;;85.20;51.72;;;2.90;96.70;;;;;;5054010;28;20051;-66
2021/03/02 03:10:01;;;;;;;89.20;52.53;;;2.90;97.20;;;;;;5055159;28;20052;-67
2021/03/02 03:12:29;;;;;;;89.05;50.28;;;2.80;97.20;;;;;;5053576;28;20029;-67
2021/03/02 03:14:59;;;;;;;80.35;48.80;;;2.80;97.40;;;;;;5055217;28;20017;-65
2021/03/02 03:17:33;;;;;;;79.43;45.90;;;2.80;97.70;;;;;;5055392;28;20519;-75
2021/03/02 03:20:02;;;;;;;74.88;46.33;;;2.90;97.40;;;;;;5055008;28;20021;-67
2021/03/02 03:22:29;;;;;;;72.32;41.70;;;3.00;97.20;;;;;;5054550;28;20028;-68
2021/03/02 03:24:56;;;;;;;73.63;41.90;;;3.00;96.90;;;;;;5054189;28;20502;-72
2021/03/02 03:27:23;;;;;;;85.80;48.40;;;3.00;96.60;;;;;;5054518;28;20028;-76
2021/03/02 03:29:50;;;;;;;91.75;56.03;;;3.00;96.80;;;;;;5054099;28;20379;-75
2021/03/02 03:32:17;;;;;;;82.75;50.58;;;3.00;96.80;;;;;;5054366;28;20017;-71
2021/03/02 03:34:44;;;;;;;70.22;40.80;;;3.00;96.60;;;;;;5054441;28;20407;-75
2021/03/02 03:37:10;;;;;;;63.67;37.90;;;3.00;96.30;;;;;;5055001;28;20013;-67
2021/03/02 03:39:37;;;;;;;59.72;36.08;;;2.90;96.30;;;;;;5054512;28;20028;-75
2021/03/02 03:42:03;;;;;;;58.78;35.35;;;2.70;96.60;;;;;;5054258;28;20479;-76
2021/03/02 03:44:29;;;;;;;53.38;32.50;;;2.70;96.70;;;;;;5054246;28;20025;-68
2021/03/02 03:46:55;;;;;;;55.28;33.95;;;2.70;96.60;;;;;;5054370;28;20055;-67
2021/03/02 03:49:21;;;;;;;54.05;32.28;;;2.60;96.60;;;;;;5054435;28;20049;-66
2021/03/02 03:51:47;;;;;;;51.42;33.15;;;2.50;96.50;;;;;;5054212;28;20495;-66
2021/03/02 03:54:15;;;;;;;60.97;36.45;;;2.50;96.70;;;;;;5054288;28;20024;-76
2021/03/02 03:56:43;;;;;;;61.53;36.20;;;2.40;96.90;;;;;;5054360;28;20100;-73
2021/03/02 03:59:11;;;;;;;68.63;37.78;;;2.50;96.70;;;;;;5053917;28;20020;-66
2021/03/02 04:01:39;;;;;;;97.07;47.85;;;2.50;96.70;;;;;;5053982;28;20021;-76
2021/03/02 04:04:06;;;;;;;60.05;34.83;;;2.50;96.40;;;;;;5053808;28;20029;-72
2021/03/02 04:06:33;;;;;;;55.47;32.67;;;2.40;96.60;;;;;;5054057;28;20049;-66
2021/03/02 04:09:01;;;;;;;54.67;32.00;;;2.30;96.80;;;;;;5052605;28;20449;-77
2021/03/02 04:11:27;;;;;;;61.75;34.08;;;2.40;96.60;;;;;;5053906;28;20021;-71
2021/03/02 04:13:55;;;;;;;64.20;36.03;;;2.40;96.60;;;;;;5053890;28;20067;-66
2021/03/02 04:16:21;;;;;;;68.20;38.60;;;2.30;96.40;;;;;;5052588;28;20029;-74
2021/03/02 04:18:47;;;;;;;58.80;34.05;;;2.30;96.90;;;;;;5054139;28;20045;-72
2021/03/02 04:21:13;;;;;;;55.40;33.25;;;2.30;96.70;;;;;;5053781;28;20047;-66
2021/03/02 04:23:40;;;;;;;61.05;35.28;;;2.30;96.70;;;;;;5053112;28;20037;-76
2021/03/02 04:26:06;;;;;;;67.15;37.47;;;2.20;96.90;;;;;;5053937;28;20370;-77
2021/03/02 04:28:32;;;;;;;63.67;35.65;;;2.10;97.30;;;;;;5053664;28;20032;-68
2021/03/02 04:30:57;;;;;;;67.03;36.97;;;2.10;97.40;;;;;;5053546;28;20066;-68
2021/03/02 04:33:23;;;;;;;65.90;37.80;;;2.00;97.60;;;;;;5053401;28;20020;-66
2021/03/02 04:35:49;;;;;;;71.07;38.15;;;2.00;97.70;;;;;;5053690;28;20108;-67
2021/03/02 04:38:15;;;;;;;65.15;36.90;;;1.80;97.60;;;;;;5053570;28;20021;-77
2021/03/02 04:40:41;;;;;;;68.25;38.22;;;1.80;97.90;;;;;;5055842;28;20021;-67
2021/03/02 04:43:07;;;;;;;72.00;38.78;;;2.00;97.60;;;;;;5056442;28;20022;-68
2021/03/02 04:45:33;;;;;;;71.72;37.45;;;1.90;97.30;;;;;;5057470;28;20029;-73
2021/03/02 04:47:59;;;;;;;66.32;38.08;;;2.00;97.30;;;;;;5057858;28;20382;-66
2021/03/02 04:50:25;;;;;;;72.40;38.50;;;2.10;97.30;;;;;;5057892;28;20416;-77
2021/03/02 04:52:51;;;;;;;72.57;38.65;;;2.10;97.00;;;;;;5057469;28;20014;-74
2021/03/02 04:55:18;;;;;;;69.78;37.33;;;2.20;96.80;;;;;;5057710;28;20018;-76
2021/03/02 04:57:44;;;;;;;66.60;36.97;;;2.20;96.80;;;;;;5058127;28;20363;-68
2021/03/02 05:00:11;;;;;;;65.00;35.95;;;2.20;96.80;;;;;;5057292;28;20028;-67
2021/03/02 05:02:37;;;;;;;64.13;36.05;;;2.20;96.60;;;;;;5057291;28;20028;-75
2021/03/02 05:05:04;;;;;;;61.80;34.83;;;2.20;96.60;;;;;;5057556;28;20028;-76
2021/03/02 05:07:30;;;;;;;60.03;34.65;;;2.20;96.50;;;;;;5057333;28;20021;-76
2021/03/02 05:09:56;;;;;;;58.72;33.75;;;2.10;96.80;;;;;;5057445;28;20488;-67
2021/03/02 05:12:22;;;;;;;58.30;32.42;;;2.10;97.10;;;;;;5055748;28;20028;-73
2021/03/02 05:14:51;;;;;;;63.97;36.97;;;2.10;97.20;;;;;;5057045;28;20363;-72
2021/03/02 05:17:17;;;;;;;64.78;37.42;;;1.90;97.50;;;;;;5056154;28;20027;-71
2021/03/02 05:19:43;;;;;;;69.97;40.10;;;1.90;97.70;;;;;;5057230;28;20021;-76
2021/03/02 05:22:09;;;;;;;77.65;43.08;;;1.80;97.70;;;;;;5057159;28;20017;-67
2021/03/02 05:24:35;;;;;;;80.45;45.08;;;1.80;97.70;;;;;;5056600;28;20084;-75
2021/03/02 05:27:01;;;;;;;88.50;47.15;;;1.90;97.40;;;;;;5056747;28;20023;-74
2021/03/02 05:29:27;;;;;;;79.00;44.90;;;1.90;97.00;;;;;;5057022;28;20471;-70
2021/03/02 05:31:53;;;;;;;79.47;43.60;;;1.80;96.80;;;;;;5056887;28;20367;-76
2021/03/02 05:34:19;;;;;;;83.00;44.50;;;1.80;97.00;;;;;;5056600;28;20474;-66
2021/03/02 05:36:45;;;;;;;87.75;50.05;;;1.90;97.30;;;;;;5057029;28;20542;-66
2021/03/02 05:39:11;;;;;;;90.35;46.53;;;1.90;97.00;;;;;;5056619;28;20021;-75
2021/03/02 05:41:40;;;;;;;83.03;46.70;;;1.90;96.70;;;;;;5056663;28;20025;-76
2021/03/02 05:44:06;;;;;;;89.35;50.40;;;1.90;96.70;;;;;;5056442;28;20017;-75
2021/03/02 05:46:33;;;;;;;82.30;47.08;;;2.00;96.70;;;;;;5056867;28;20025;-75
2021/03/02 05:48:59;;;;;;;80.65;45.75;;;2.00;96.70;;;;;;5056404;28;20150;-69
2021/03/02 05:51:25;;;;;;;110.95;56.50;;;2.10;96.70;;;;;;5055962;28;20052;-75
2021/03/02 05:53:52;;;;;;;107.32;57.35;;;2.10;96.80;;;;;;5056708;28;20480;-75
2021/03/02 05:56:18;;;;;;;96.72;53.75;;;2.20;96.90;;;;;;5056334;28;20028;-75
2021/03/02 05:58:44;;;;;;;97.82;51.67;;;2.20;96.80;;;;;;5056414;28;20569;-77
2021/03/02 06:01:10;;;;;;;88.05;49.10;;;2.30;96.90;;;;;;5056249;28;20017;-76
2021/03/02 06:03:37;;;;;;;94.43;51.33;;;2.30;96.70;;;;;;5056438;28;20371;-76
2021/03/02 06:06:04;;;;;;;101.55;56.13;;;2.20;97.00;;;;;;5055285;28;20067;-76
2021/03/02 06:08:31;;;;;;;107.63;60.92;;;2.10;97.30;;;;;;5054838;28;20139;-75
2021/03/02 06:10:57;;;;;;;124.22;72.25;;;2.00;97.60;;;;;;5056535;28;20104;-75
2021/03/02 06:13:26;;;;;;;110.10;61.92;;;2.10;97.80;;;;;;5056297;28;20116;-67
2021/03/02 06:15:57;;;;;;;92.63;53.72;;;2.10;97.90;;;;;;5056038;28;20540;-75
2021/03/02 06:18:24;;;;;;;180.82;99.68;;;2.00;98.30;;;;;;5054722;28;20021;-66
2021/03/02 06:20:51;;;;;;;126.38;70.40;;;1.90;98.30;;;;;;5055925;28;20463;-77
2021/03/02 06:23:29;;;;;;;99.60;57.83;;;2.00;98.40;;;;;;5055583;28;20037;-75
2021/03/02 06:25:57;;;;;;;90.05;53.45;;;2.10;98.40;;;;;;5056127;28;20029;-77
2021/03/02 06:28:44;;;;;;;97.78;57.28;;;2.20;98.30;;;;;;5056064;28;20017;-67
2021/03/02 06:31:30;;;;;;;112.05;64.30;;;2.30;98.20;;;;;;5055626;28;20108;-67
2021/03/02 06:34:10;;;;;;;128.40;69.65;;;2.40;98.30;;;;;;5055789;28;20052;-76
2021/03/02 06:36:37;;;;;;;160.80;78.65;;;2.50;98.00;;;;;;5055931;28;20041;-77
2021/03/02 06:39:26;;;;;;;134.20;74.05;;;2.70;98.10;;;;;;5055697;28;20410;-74
2021/03/02 06:42:14;;;;;;;151.07;78.50;;;2.70;98.10;;;;;;5055601;28;20028;-76
2021/03/02 06:44:45;;;;;;;154.32;86.13;;;2.90;98.00;;;;;;5054773;28;20045;-66
2021/03/02 06:47:13;;;;;;;135.07;81.32;;;2.90;98.30;;;;;;5055200;28;20496;-70
2021/03/02 06:49:41;;;;;;;140.27;82.30;;;2.90;97.90;;;;;;5055481;28;20371;-67
2021/03/02 06:52:19;;;;;;;135.60;77.72;;;3.10;98.10;;;;;;5055096;28;20017;-66
2021/03/02 06:54:47;;;;;;;128.45;76.15;;;3.20;97.80;;;;;;5055211;28;20017;-66
2021/03/02 06:57:21;;;;;;;144.55;73.63;;;3.30;98.00;;;;;;5055195;28;20025;-65
2021/03/02 06:59:51;;;;;;;242.93;143.30;;;3.50;98.00;;;;;;5055810;28;20040;-68
2021/03/02 07:02:38;;;;;;;86.03;53.28;;;3.50;97.80;;;;;;5055248;28;20282;-77
2021/03/02 07:05:13;;;;;;;98.07;70.45;;;3.70;97.50;;;;;;5054021;28;20169;-77
2021/03/02 07:07:40;;;;;;;;;;;3.80;97.80;;;;;;5055663;28;20378;-76
2021/03/02 07:10:07;;;;;;;86.43;50.38;;;3.80;98.00;;;;;;5055017;28;19999;-66
2021/03/02 07:12:36;;;;;;;91.03;49.72;;;4.00;97.60;;;;;;5055020;28;20021;-69
2021/03/02 07:15:05;;;;;;;70.53;39.97;;;3.90;97.80;;;;;;5054983;28;20017;-75
2021/03/02 07:17:31;;;;;;;62.95;38.75;;;4.00;98.00;;;;;;5054662;28;20025;-77
2021/03/02 07:20:01;;;;;;;120.95;59.28;;;4.20;97.30;;;;;;5054606;28;20027;-69
2021/03/02 07:22:27;;;;;;;81.13;43.55;;;4.40;97.60;;;;;;5054353;28;20021;-72
2021/03/02 07:24:54;;;;;;;69.28;44.38;;;4.60;97.50;;;;;;5053983;28;20041;-73
2021/03/02 07:27:21;;;;;;;56.33;35.42;;;4.80;97.40;;;;;;5054213;28;20083;-67
2021/03/02 07:29:50;;;;;;;58.50;37.40;;;4.90;97.10;;;;;;5054244;28;20033;-76
2021/03/02 07:32:17;;;;;;;62.85;40.63;;;4.80;96.90;;;;;;5054318;28;20017;-67
2021/03/02 07:34:47;;;;;;;65.57;39.47;;;4.80;97.20;;;;;;5054613;28;20483;-69
2021/03/02 07:37:20;;;;;;;66.68;42.78;;;4.80;97.10;;;;;;5053719;28;20051;-67
2021/03/02 07:40:02;;;;;;;51.58;34.05;;;5.20;97.00;;;;;;5052920;28;20025;-68
2021/03/02 07:42:28;;;;;;;53.25;32.90;;;5.40;96.90;;;;;;5054422;28;20375;-71
2021/03/02 07:45:04;;;;;;;53.58;33.00;;;5.50;95.70;;;;;;5054245;28;20038;-73
2021/03/02 07:47:49;;;;;;;54.72;34.90;;;5.70;96.30;;;;;;5054344;28;20061;-70
2021/03/02 07:50:23;;;;;;;55.13;34.08;;;5.90;95.40;;;;;;5054293;28;20025;-71
2021/03/02 07:53:09;;;;;;;85.22;46.80;;;6.20;95.70;;;;;;5054178;28;20055;-70
2021/03/02 07:55:35;;;;;;;49.40;30.10;;;6.20;95.10;;;;;;5053990;28;20459;-74
2021/03/02 07:58:22;;;;;;;78.15;40.75;;;6.40;94.90;;;;;;5054149;28;20017;-67
2021/03/02 08:00:50;;;;;;;66.50;37.20;;;6.50;94.70;;;;;;5054029;28;20485;-72
2021/03/02 08:08:26;;;;;;;175.75;105.97;;;6.90;94.10;;;;;;5739533;22;20519;-67
2021/03/02 08:10:56;;;;;;;214.93;156.63;;;6.90;93.40;;;;;;4974754;28;20030;-77
2021/03/02 08:13:38;;;;;;;445.75;178.15;;;7.00;93.90;;;;;;4975163;28;20078;-76
2021/03/02 08:16:13;;;;;;;94.60;73.43;;;7.40;93.40;;;;;;4974780;28;20031;-76
2021/03/02 08:18:40;;;;;;;49.67;32.42;;;7.30;92.30;;;;;;4975229;28;20380;-69
2021/03/02 08:21:13;;;;;;;50.25;35.92;;;7.30;93.20;;;;;;4975294;28;20106;-77
2021/03/02 08:23:57;;;;;;;54.67;35.22;;;7.80;92.60;;;;;;4974980;28;20106;-78
2021/03/02 08:26:35;;;;;;;52.95;29.48;;;8.00;91.80;;;;;;4974939;28;20404;-77
2021/03/02 08:29:10;;;;;;;51.63;32.13;;;8.00;91.60;;;;;;4975350;28;20023;-78
2021/03/02 08:31:38;;;;;;;82.43;45.10;;;8.80;91.90;;;;;;4974932;28;20023;-69
2021/03/02 08:34:06;;;;;;;49.08;30.95;;;9.00;90.80;;;;;;4974874;28;20019;-78
2021/03/02 08:36:33;;;;;;;37.92;25.90;;;8.90;90.30;;;;;;4975119;28;20027;-78
2021/03/02 08:38:59;;;;;;;41.22;28.45;;;8.70;89.10;;;;;;4974996;28;20022;-78
2021/03/02 08:41:28;;;;;;;49.65;30.92;;;9.00;90.10;;;;;;4975131;28;20373;-71
2021/03/02 08:43:54;;;;;;;34.92;24.38;;;9.60;90.10;;;;;;4974813;28;20062;-68
2021/03/02 08:46:32;;;;;;;36.03;23.85;;;9.50;86.30;;;;;;4973443;28;20373;-77
2021/03/02 08:48:58;;;;;;;33.17;23.25;;;9.00;86.80;;;;;;4974959;28;20481;-78
2021/03/02 08:51:25;;;;;;;33.85;23.67;;;8.70;88.70;;;;;;4973579;28;20027;-78
2021/03/02 08:53:52;;;;;;;32.88;22.90;;;9.20;89.10;;;;;;4974744;28;20034;-77
2021/03/02 08:56:24;;;;;;;31.20;21.85;;;9.10;87.30;;;;;;4974555;28;20027;-78
2021/03/02 08:58:54;;;;;;;37.65;25.08;;;8.80;87.90;;;;;;4974781;28;20019;-69
2021/03/02 09:01:23;;;;;;;38.35;25.80;;;9.20;88.70;;;;;;4974864;28;20015;-76
2021/03/02 09:03:51;;;;;;;29.80;20.85;;;9.20;86.40;;;;;;4975005;28;20106;-69
2021/03/02 09:06:25;;;;;;;35.75;23.38;;;9.40;88.00;;;;;;4973297;28;20090;-78
2021/03/02 09:09:03;;;;;;;38.85;25.55;;;9.80;84.00;;;;;;4974409;28;20053;-70
2021/03/02 09:11:41;;;;;;;36.35;23.77;;;10.20;83.70;;;;;;4974799;28;20027;-79
2021/03/02 09:14:17;;;;;;;35.17;22.40;;;10.20;83.40;;;;;;4973366;28;20495;-68
2021/03/02 09:16:58;;;;;;;33.47;22.30;;;10.80;82.00;;;;;;4974931;28;20050;-78
2021/03/02 09:19:50;;;;;;;29.63;21.48;;;11.00;80.90;;;;;;4974707;28;20030;-70
2021/03/02 09:22:17;;;;;;;29.95;21.77;;;10.40;78.40;;;;;;4973311;28;20129;-70
2021/03/02 09:24:53;;;;;;;32.78;22.75;;;10.20;80.60;;;;;;4974399;28;20074;-77
2021/03/02 09:27:21;;;;;;;30.83;21.27;;;10.80;81.90;;;;;;4975992;28;20171;-78
2021/03/02 09:29:48;;;;;;;27.48;19.67;;;11.20;78.60;;;;;;4976735;28;20073;-77
2021/03/02 09:32:21;;;;;;;37.92;24.75;;;10.80;76.60;;;;;;4978238;28;20023;-70
2021/03/02 09:34:47;;;;;;;28.77;20.25;;;10.90;78.20;;;;;;4978045;28;20037;-77
2021/03/02 09:37:18;;;;;;;39.50;25.38;;;10.60;77.10;;;;;;4978008;28;20031;-78
2021/03/02 09:39:54;;;;;;;46.28;23.65;;;11.00;78.60;;;;;;4978227;28;20070;-77
2021/03/02 09:42:24;;;;;;;30.75;19.90;;;11.50;79.70;;;;;;4978031;28;20027;-78
2021/03/02 09:44:52;;;;;;;31.50;20.33;;;11.70;76.30;;;;;;4977560;28;20030;-78
2021/03/02 09:47:28;;;;;;;30.70;21.48;;;11.50;76.60;;;;;;4977934;28;20023;-79
2021/03/02 09:50:11;;;;;;;27.70;20.50;;;11.90;74.80;;;;;;4977645;28;20058;-78
2021/03/02 09:52:38;;;;;;;31.13;20.02;;;12.10;75.20;;;;;;4977806;28;20023;-85
2021/03/02 09:55:28;;;;;;;42.15;30.02;;;12.20;75.60;;;;;;4976373;28;20023;-77
2021/03/02 09:57:58;;;;;;;40.40;22.85;;;12.30;72.80;;;;;;4975019;28;20070;-76
2021/03/02 10:00:30;;;;;;;49.63;25.98;;;11.80;75.20;;;;;;4977615;28;20035;-75
2021/03/02 10:03:04;;;;;;;35.92;23.83;;;12.30;73.80;;;;;;4977545;28;20350;-76
2021/03/02 10:05:39;;;;;;;36.45;25.13;;;12.50;72.10;;;;;;4976081;28;20035;-77
2021/03/02 10:08:23;;;;;;;45.05;26.58;;;13.10;71.20;;;;;;4975697;28;20409;-77
2021/03/02 10:10:51;;;;;;;32.77;21.73;;;12.90;68.50;;;;;;4977423;28;20419;-77
2021/03/02 10:13:28;;;;;;;33.25;20.58;;;13.60;66.90;;;;;;4977102;28;20026;-69
2021/03/02 10:16:12;;;;;;;42.00;30.27;;;14.20;67.90;;;;;;4977211;28;20033;-77
2021/03/02 10:18:52;;;;;;;31.38;22.20;;;13.80;66.00;;;;;;4977225;28;20089;-76
2021/03/02 10:21:19;;;;;;;32.28;22.15;;;14.20;62.80;;;;;;4977600;28;20082;-76
2021/03/02 10:23:51;;;;;;;30.55;21.48;;;14.30;61.00;;;;;;4976997;28;20031;-74
2021/03/02 10:26:24;;;;;;;52.53;37.92;;;14.50;61.10;;;;;;4976958;28;20027;-76
2021/03/02 10:28:51;;;;;;;52.83;33.63;;;14.60;62.60;;;;;;4976882;28;20023;-74
2021/03/02 10:31:17;;;;;;;126.88;88.95;;;13.90;61.60;;;;;;4977377;28;20022;-69
2021/03/02 10:33:43;;;;;;;105.97;76.40;;;13.60;62.80;;;;;;4977078;28;20029;-69
2021/03/02 10:36:27;;;;;;;25.55;18.48;;;14.40;59.70;;;;;;4977200;28;20039;-77
2021/03/02 10:38:55;;;;;;;28.02;19.20;;;14.20;60.30;;;;;;4976481;28;20034;-76
2021/03/02 10:41:21;;;;;;;80.03;56.55;;;14.20;59.20;;;;;;4976784;28;20034;-77
2021/03/02 10:43:49;;;;;;;64.50;41.30;;;14.10;58.40;;;;;;4976672;28;20031;-76
2021/03/02 10:46:17;;;;;;;43.78;26.08;;;14.50;60.20;;;;;;4976723;28;20019;-70
2021/03/02 10:48:45;;;;;;;31.10;20.02;;;14.40;59.60;;;;;;4976915;28;20093;-77
2021/03/02 10:51:12;;;;;;;28.33;19.00;;;13.40;59.00;;;;;;4976960;28;20023;-77
2021/03/02 10:53:38;;;;;;;31.77;19.27;;;14.30;62.10;;;;;;4976744;28;20019;-76
2021/03/02 10:56:04;;;;;;;25.73;16.50;;;14.90;62.50;;;;;;4976861;28;20027;-77
2021/03/02 10:58:30;;;;;;;23.27;15.25;;;14.70;57.90;;;;;;4976494;28;20031;-77
2021/03/02 11:00:56;;;;;;;23.85;15.75;;;15.80;56.00;;;;;;4976769;28;20223;-77
2021/03/02 11:03:25;;;;;;;25.23;19.23;;;16.20;54.40;;;;;;4976874;28;20029;-77
2021/03/02 11:05:52;;;;;;;26.15;17.83;;;16.20;55.30;;;;;;4977005;28;20037;-77
2021/03/02 11:08:19;;;;;;;31.65;21.35;;;16.60;55.40;;;;;;4974763;28;20475;-76
2021/03/02 11:10:46;;;;;;;28.00;18.50;;;16.40;52.50;;;;;;4976597;28;20065;-76
2021/03/02 11:13:13;;;;;;;21.13;15.48;;;16.80;54.00;;;;;;4976611;28;20034;-77
2021/03/02 11:15:40;;;;;;;26.88;17.92;;;16.00;51.10;;;;;;4976532;28;20106;-75
2021/03/02 11:18:07;;;;;;;22.90;14.07;;;16.20;51.90;;;;;;4974903;28;20027;-77
2021/03/02 11:20:34;;;;;;;19.77;13.32;;;16.60;54.10;;;;;;4976548;28;20495;-75
2021/03/02 11:23:00;;;;;;;34.25;21.85;;;17.40;53.10;;;;;;4976211;28;20026;-77
2021/03/02 11:25:26;;;;;;;18.30;12.93;;;17.30;48.90;;;;;;4975197;28;20030;-79
2021/03/02 11:27:53;;;;;;;15.70;11.63;;;16.60;50.70;;;;;;4976195;28;20519;-77
2021/03/02 11:30:19;;;;;;;17.08;12.13;;;17.00;50.40;;;;;;4974726;28;20026;-77
2021/03/02 11:32:45;;;;;;;15.10;11.02;;;18.10;49.90;;;;;;4976214;28;20022;-76
2021/03/02 11:35:12;;;;;;;16.98;11.63;;;18.30;50.10;;;;;;4975798;28;20027;-76
2021/03/02 11:37:39;;;;;;;31.92;19.00;;;18.30;49.80;;;;;;4975886;28;20023;-76
2021/03/02 11:40:10;;;;;;;14.85;10.73;;;17.80;48.70;;;;;;4975844;28;20514;-68
2021/03/02 11:42:40;;;;;;;13.93;10.00;;;17.60;50.20;;;;;;4974483;28;20484;-69
2021/03/02 11:45:08;;;;;;;12.93;9.63;;;17.80;47.20;;;;;;4975614;28;20030;-69
2021/03/02 11:47:35;;;;;;;15.27;10.63;;;18.30;45.80;;;;;;4975928;28;20073;-76
2021/03/02 11:50:03;;;;;;;14.95;10.57;;;18.10;46.30;;;;;;4974862;28;20030;-73
2021/03/02 11:52:29;;;;;;;12.77;9.13;;;17.90;51.90;;;;;;4975453;28;20026;-76
2021/03/02 11:54:55;;;;;;;14.38;9.77;;;18.80;48.50;;;;;;4975402;28;20181;-69
2021/03/02 11:57:21;;;;;;;11.70;8.93;;;19.20;48.70;;;;;;4975381;28;20106;-75
2021/03/02 11:59:47;;;;;;;34.15;16.15;;;19.00;46.20;;;;;;4975804;28;20508;-74
2021/03/02 12:02:14;;;;;;;23.65;15.40;;;18.60;46.90;;;;;;4975781;28;20019;-71
2021/03/02 12:04:41;;;;;;;22.10;13.93;;;18.00;48.60;;;;;;4973975;28;20416;-75
2021/03/02 12:07:07;;;;;;;19.52;12.23;;;17.00;47.90;;;;;;4975194;28;20015;-69
2021/03/02 12:09:34;;;;;;;13.07;8.98;;;16.90;49.90;;;;;;4975264;28;20047;-69
2021/03/02 12:12:00;;;;;;;22.08;14.32;;;16.90;48.10;;;;;;4975124;28;20025;-71
2021/03/02 12:14:26;;;;;;;12.52;8.82;;;16.50;47.80;;;;;;4975507;28;20053;-73
2021/03/02 12:16:52;;;;;;;15.25;9.88;;;16.50;49.50;;;;;;4975711;28;20054;-77
2021/03/02 12:19:18;;;;;;;19.30;12.57;;;17.00;49.60;;;;;;4975533;28;20030;-68
2021/03/02 12:21:44;;;;;;;22.67;10.68;;;16.80;48.70;;;;;;4975059;28;20019;-76
2021/03/02 12:24:10;;;;;;;17.98;11.85;;;16.70;49.90;;;;;;4975335;28;20062;-77
2021/03/02 12:26:36;;;;;;;13.85;9.00;;;16.90;49.00;;;;;;4975443;28;20106;-68
2021/03/02 12:29:02;;;;;;;11.68;7.95;;;17.20;51.00;;;;;;4975352;28;20113;-69
2021/03/02 12:31:28;;;;;;;10.93;7.43;;;17.50;50.40;;;;;;4975697;28;20364;-75
2021/03/02 12:33:54;;;;;;;17.23;10.25;;;17.60;49.70;;;;;;4974068;28;20023;-84
2021/03/02 12:36:21;;;;;;;12.32;7.63;;;17.60;49.10;;;;;;4973965;28;20117;-81
2021/03/02 12:38:47;;;;;;;10.60;7.63;;;17.80;48.30;;;;;;4975660;28;20031;-69
2021/03/02 12:41:13;;;;;;;10.68;7.95;;;17.70;47.30;;;;;;4975221;28;20019;-80
2021/03/02 12:43:39;;;;;;;9.77;7.28;;;17.70;48.90;;;;;;4975755;28;20023;-71
2021/03/02 12:46:05;;;;;;;9.52;7.35;;;17.90;49.40;;;;;;4975607;28;20148;-74
2021/03/02 12:48:31;;;;;;;9.18;6.72;;;17.90;47.70;;;;;;4975092;28;20473;-79
2021/03/02 12:50:58;;;;;;;14.65;8.73;;;17.80;46.50;;;;;;4975336;28;20034;-75